sensor_id;sensor_type;location;lat;lon;timestamp;pressure;altitude;pressure_sealevel;temperature;humidity
46718;BME280;32448;44.960;-0.698;2023-11-21T00:00:35;101643.97;;;9.68;100.00
46718;BME280;32448;44.960;-0.698;2023-11-21T00:03:02;101643.28;;;9.73;100.00
46718;BME280;32448;44.960;-0.698;2023-11-21T00:05:31;101638.88;;;9.71;100.00
46718;BME280;32448;44.960;-0.698;2023-11-21T00:07:58;101636.28;;;9.72;100.00
46718;BME280;32448;44.960;-0.698;2023-11-21T00:10:24;101631.22;;;9.77;100.00
46718;BME280;32448;44.960;-0.698;2023-11-21T00:12:51;101639.19;;;9.80;100.00
46718;BME280;32448;44.960;-0.698;2023-11-21T00:15:22;101637.47;;;9.80;100.00
46718;BME280;32448;44.960;-0.698;2023-11-21T00:17:49;101623.28;;;9.74;100.00
46718;BME280;32448;44.960;-0.698;2023-11-21T00:20:16;101629.69;;;9.83;100.00
46718;BME280;32448;44.960;-0.698;2023-11-21T00:22:43;101622.75;;;9.84;100.00
46718;BME280;32448;44.960;-0.698;2023-11-21T00:25:10;101633.44;;;9.90;100.00
46718;BME280;32448;44.960;-0.698;2023-11-21T00:27:38;101619.47;;;9.90;100.00
46718;BME280;32448;44.960;-0.698;2023-11-21T00:30:05;101615.16;;;9.90;100.00
46718;BME280;32448;44.960;-0.698;2023-11-21T00:32:35;101613.53;;;9.94;100.00
46718;BME280;32448;44.960;-0.698;2023-11-21T00:35:03;101609.16;;;9.94;100.00
46718;BME280;32448;44.960;-0.698;2023-11-21T00:37:30;101608.34;;;9.95;100.00
46718;BME280;32448;44.960;-0.698;2023-11-21T00:39:58;101612.78;;;9.98;100.00
46718;BME280;32448;44.960;-0.698;2023-11-21T00:42:26;101615.63;;;10.05;100.00
46718;BME280;32448;44.960;-0.698;2023-11-21T00:44:54;101608.72;;;10.07;100.00
46718;BME280;32448;44.960;-0.698;2023-11-21T00:47:21;101585.59;;;9.91;100.00
46718;BME280;32448;44.960;-0.698;2023-11-21T00:49:49;101614.06;;;10.10;100.00
46718;BME280;32448;44.960;-0.698;2023-11-21T00:52:16;101610.69;;;10.13;100.00
46718;BME280;32448;44.960;-0.698;2023-11-21T00:54:43;101609.28;;;10.23;100.00
46718;BME280;32448;44.960;-0.698;2023-11-21T00:57:11;101610.16;;;10.23;100.00
46718;BME280;32448;44.960;-0.698;2023-11-21T00:59:38;101613.66;;;10.24;100.00
46718;BME280;32448;44.960;-0.698;2023-11-21T01:02:28;101611.56;;;10.40;100.00
46718;BME280;32448;44.960;-0.698;2023-11-21T01:05:25;101618.66;;;10.73;100.00
46718;BME280;32448;44.960;-0.698;2023-11-21T01:08:06;101605.25;;;10.62;100.00
46718;BME280;32448;44.960;-0.698;2023-11-21T01:10:34;101598.19;;;10.58;100.00
46718;BME280;32448;44.960;-0.698;2023-11-21T01:13:14;101593.84;;;10.58;100.00
46718;BME280;32448;44.960;-0.698;2023-11-21T01:15:44;101597.34;;;10.59;100.00
46718;BME280;32448;44.960;-0.698;2023-11-21T01:18:11;101591.97;;;10.54;100.00
46718;BME280;32448;44.960;-0.698;2023-11-21T01:20:45;101592.81;;;10.53;100.00
46718;BME280;32448;44.960;-0.698;2023-11-21T01:23:19;101576.19;;;10.51;100.00
46718;BME280;32448;44.960;-0.698;2023-11-21T01:26:09;101587.53;;;10.52;100.00
46718;BME280;32448;44.960;-0.698;2023-11-21T01:28:41;101584.84;;;10.49;100.00
46718;BME280;32448;44.960;-0.698;2023-11-21T01:31:13;101581.13;;;10.42;100.00
46718;BME280;32448;44.960;-0.698;2023-11-21T01:33:46;101581.13;;;10.42;100.00
46718;BME280;32448;44.960;-0.698;2023-11-21T01:36:16;101582.81;;;10.40;100.00
46718;BME280;32448;44.960;-0.698;2023-11-21T01:38:48;101577.53;;;10.39;100.00
46718;BME280;32448;44.960;-0.698;2023-11-21T01:41:16;101564.34;;;10.34;100.00
46718;BME280;32448;44.960;-0.698;2023-11-21T01:43:43;101581.84;;;10.37;100.00
46718;BME280;32448;44.960;-0.698;2023-11-21T01:46:11;101578.34;;;10.36;100.00
46718;BME280;32448;44.960;-0.698;2023-11-21T01:48:38;101583.56;;;10.36;100.00
46718;BME280;32448;44.960;-0.698;2023-11-21T01:51:06;101578.19;;;10.32;100.00
46718;BME280;32448;44.960;-0.698;2023-11-21T01:53:34;101573.75;;;10.29;100.00
46718;BME280;32448;44.960;-0.698;2023-11-21T01:56:03;101575.47;;;10.29;100.00
46718;BME280;32448;44.960;-0.698;2023-11-21T01:58:30;101565.59;;;10.18;100.00
46718;BME280;32448;44.960;-0.698;2023-11-21T02:00:59;101577.88;;;10.21;100.00
46718;BME280;32448;44.960;-0.698;2023-11-21T02:03:27;101560.78;;;10.05;100.00
46718;BME280;32448;44.960;-0.698;2023-11-21T02:05:55;101573.16;;;10.11;100.00
46718;BME280;32448;44.960;-0.698;2023-11-21T02:08:22;101555.31;;;9.98;100.00
46718;BME280;32448;44.960;-0.698;2023-11-21T02:10:48;101565.81;;;9.99;100.00
46718;BME280;32448;44.960;-0.698;2023-11-21T02:13:15;101564.78;;;9.94;100.00
46718;BME280;32448;44.960;-0.698;2023-11-21T02:15:43;101554.16;;;9.88;100.00
46718;BME280;32448;44.960;-0.698;2023-11-21T02:18:10;101561.97;;;9.88;100.00
46718;BME280;32448;44.960;-0.698;2023-11-21T02:20:38;101560.03;;;9.81;100.00
46718;BME280;32448;44.960;-0.698;2023-11-21T02:23:05;101561.78;;;9.82;100.00
46718;BME280;32448;44.960;-0.698;2023-11-21T02:25:33;101558.97;;;9.76;100.00
46718;BME280;32448;44.960;-0.698;2023-11-21T02:28:02;101558.84;;;9.71;100.00
46718;BME280;32448;44.960;-0.698;2023-11-21T02:30:29;101561.34;;;9.68;100.00
46718;BME280;32448;44.960;-0.698;2023-11-21T02:33:01;101563.06;;;9.68;100.00
46718;BME280;32448;44.960;-0.698;2023-11-21T02:35:30;101551.56;;;9.63;100.00
46718;BME280;32448;44.960;-0.698;2023-11-21T02:37:58;101553.34;;;9.64;100.00
46718;BME280;32448;44.960;-0.698;2023-11-21T02:40:25;101549.00;;;9.64;100.00
46718;BME280;32448;44.960;-0.698;2023-11-21T02:42:53;101517.09;;;9.46;100.00
46718;BME280;32448;44.960;-0.698;2023-11-21T02:45:21;101556.94;;;9.67;100.00
46718;BME280;32448;44.960;-0.698;2023-11-21T02:47:50;101565.84;;;9.74;100.00
46718;BME280;32448;44.960;-0.698;2023-11-21T02:50:17;101579.13;;;9.80;100.00
46718;BME280;32448;44.960;-0.698;2023-11-21T02:52:45;101568.53;;;9.75;100.00
46718;BME280;32448;44.960;-0.698;2023-11-21T02:55:13;101563.31;;;9.75;100.00
46718;BME280;32448;44.960;-0.698;2023-11-21T02:57:40;101562.56;;;9.79;100.00
46718;BME280;32448;44.960;-0.698;2023-11-21T03:00:07;101566.03;;;9.78;100.00
46718;BME280;32448;44.960;-0.698;2023-11-21T03:02:35;101574.00;;;9.83;100.00
46718;BME280;32448;44.960;-0.698;2023-11-21T03:05:07;101568.78;;;9.83;100.00
46718;BME280;32448;44.960;-0.698;2023-11-21T03:07:39;101541.28;;;9.67;100.00
46718;BME280;32448;44.960;-0.698;2023-11-21T03:10:08;101551.03;;;9.73;100.00
46718;BME280;32448;44.960;-0.698;2023-11-21T03:12:39;101520.78;;;9.53;100.00
46718;BME280;32448;44.960;-0.698;2023-11-21T03:15:06;101543.94;;;9.69;100.00
46718;BME280;32448;44.960;-0.698;2023-11-21T03:17:33;101570.50;;;9.82;100.00
46718;BME280;32448;44.960;-0.698;2023-11-21T03:20:00;101565.31;;;9.84;100.00
46718;BME280;32448;44.960;-0.698;2023-11-21T03:22:27;101573.25;;;9.87;100.00
46718;BME280;32448;44.960;-0.698;2023-11-21T03:24:54;101561.94;;;9.86;100.00
46718;BME280;32448;44.960;-0.698;2023-11-21T03:27:21;101565.47;;;9.89;100.00
46718;BME280;32448;44.960;-0.698;2023-11-21T03:29:48;101573.41;;;9.92;100.00
46718;BME280;32448;44.960;-0.698;2023-11-21T03:32:16;101566.66;;;9.98;100.00
46718;BME280;32448;44.960;-0.698;2023-11-21T03:34:57;101568.28;;;9.95;100.00
46718;BME280;32448;44.960;-0.698;2023-11-21T03:37:25;101568.50;;;10.01;100.00
46718;BME280;32448;44.960;-0.698;2023-11-21T03:39:55;101576.44;;;10.04;100.00
46718;BME280;32448;44.960;-0.698;2023-11-21T03:42:23;101565.03;;;10.02;100.00
46718;BME280;32448;44.960;-0.698;2023-11-21T03:44:52;101566.88;;;10.04;100.00
46718;BME280;32448;44.960;-0.698;2023-11-21T03:47:19;101570.59;;;10.12;100.00
46718;BME280;32448;44.960;-0.698;2023-11-21T03:49:46;101562.00;;;10.16;100.00
46718;BME280;32448;44.960;-0.698;2023-11-21T03:52:16;101563.03;;;10.20;100.00
46718;BME280;32448;44.960;-0.698;2023-11-21T03:54:43;101576.44;;;10.61;100.00
46718;BME280;32448;44.960;-0.698;2023-11-21T03:57:11;101578.16;;;10.58;100.00
46718;BME280;32448;44.960;-0.698;2023-11-21T03:59:42;101566.53;;;10.49;100.00
46718;BME280;32448;44.960;-0.698;2023-11-21T04:02:09;101570.69;;;10.42;100.00
46718;BME280;32448;44.960;-0.698;2023-11-21T04:04:36;101591.19;;;10.57;100.00
46718;BME280;32448;44.960;-0.698;2023-11-21T04:07:04;101585.91;;;10.55;100.00
46718;BME280;32448;44.960;-0.698;2023-11-21T04:09:31;101600.28;;;10.70;100.00
46718;BME280;32448;44.960;-0.698;2023-11-21T04:11:58;101601.16;;;10.70;100.00
46718;BME280;32448;44.960;-0.698;2023-11-21T04:14:25;101594.06;;;10.66;100.00
46718;BME280;32448;44.960;-0.698;2023-11-21T04:16:52;101599.59;;;10.77;100.00
46718;BME280;32448;44.960;-0.698;2023-11-21T04:19:20;101595.16;;;10.74;100.00
46718;BME280;32448;44.960;-0.698;2023-11-21T04:21:47;101611.22;;;10.86;100.00
46718;BME280;32448;44.960;-0.698;2023-11-21T04:24:16;101599.91;;;10.87;100.00
46718;BME280;32448;44.960;-0.698;2023-11-21T04:26:44;101612.16;;;10.88;100.00
46718;BME280;32448;44.960;-0.698;2023-11-21T04:29:11;101600.66;;;10.83;100.00
46718;BME280;32448;44.960;-0.698;2023-11-21T04:31:38;101609.28;;;10.79;100.00
46718;BME280;32448;44.960;-0.698;2023-11-21T04:34:05;101607.44;;;10.77;100.00
46718;BME280;32448;44.960;-0.698;2023-11-21T04:36:32;101606.25;;;10.66;100.00
46718;BME280;32448;44.960;-0.698;2023-11-21T04:38:59;101607.97;;;10.65;100.00
46718;BME280;32448;44.960;-0.698;2023-11-21T04:41:26;101610.41;;;10.59;100.00
46718;BME280;32448;44.960;-0.698;2023-11-21T04:43:53;101616.47;;;10.58;100.00
46718;BME280;32448;44.960;-0.698;2023-11-21T04:46:20;101606.03;;;10.58;100.00
46718;BME280;32448;44.960;-0.698;2023-11-21T04:48:47;101597.81;;;10.46;100.00
46718;BME280;32448;44.960;-0.698;2023-11-21T04:51:14;101597.59;;;10.40;100.00
46718;BME280;32448;44.960;-0.698;2023-11-21T04:53:41;101607.16;;;10.39;100.00
46718;BME280;32448;44.960;-0.698;2023-11-21T04:56:08;101610.50;;;10.34;100.00
46718;BME280;32448;44.960;-0.698;2023-11-21T04:58:34;101592.50;;;10.17;100.00
46718;BME280;32448;44.960;-0.698;2023-11-21T05:01:02;101610.94;;;10.20;100.00
46718;BME280;32448;44.960;-0.698;2023-11-21T05:03:34;101583.22;;;9.99;100.00
46718;BME280;32448;44.960;-0.698;2023-11-21T05:06:01;101594.66;;;10.02;100.00
46718;BME280;32448;44.960;-0.698;2023-11-21T05:08:28;101624.78;;;10.18;100.00
46718;BME280;32448;44.960;-0.698;2023-11-21T05:10:54;101626.63;;;10.20;100.00
46718;BME280;32448;44.960;-0.698;2023-11-21T05:13:21;101631.94;;;10.24;100.00
46718;BME280;32448;44.960;-0.698;2023-11-21T05:15:49;101629.38;;;10.25;100.00
46718;BME280;32448;44.960;-0.698;2023-11-21T05:18:16;101641.56;;;10.25;100.00
46718;BME280;32448;44.960;-0.698;2023-11-21T05:20:43;101634.63;;;10.25;100.00
46718;BME280;32448;44.960;-0.698;2023-11-21T05:23:09;101636.22;;;10.21;100.00
46718;BME280;32448;44.960;-0.698;2023-11-21T05:25:36;101650.34;;;10.27;100.00
46718;BME280;32448;44.960;-0.698;2023-11-21T05:28:06;101647.75;;;10.28;100.00
46718;BME280;32448;44.960;-0.698;2023-11-21T05:30:33;101647.63;;;10.24;100.00
46718;BME280;32448;44.960;-0.698;2023-11-21T05:33:00;101659.25;;;10.33;100.00
46718;BME280;32448;44.960;-0.698;2023-11-21T05:35:27;101656.47;;;10.27;100.00
46718;BME280;32448;44.960;-0.698;2023-11-21T05:37:54;101660.63;;;10.22;100.00
46718;BME280;32448;44.960;-0.698;2023-11-21T05:40:21;101659.75;;;10.21;100.00
46718;BME280;32448;44.960;-0.698;2023-11-21T05:42:49;101664.09;;;10.21;100.00
46718;BME280;32448;44.960;-0.698;2023-11-21T05:45:18;101657.13;;;10.21;100.00
46718;BME280;32448;44.960;-0.698;2023-11-21T05:47:46;101665.09;;;10.25;100.00
46718;BME280;32448;44.960;-0.698;2023-11-21T05:50:15;101669.38;;;10.23;100.00
46718;BME280;32448;44.960;-0.698;2023-11-21T05:52:44;101657.81;;;10.17;100.00
46718;BME280;32448;44.960;-0.698;2023-11-21T05:55:11;101662.25;;;10.18;100.00
46718;BME280;32448;44.960;-0.698;2023-11-21T05:57:39;101671.09;;;10.22;100.00
46718;BME280;32448;44.960;-0.698;2023-11-21T06:00:16;101666.75;;;10.23;100.00
46718;BME280;32448;44.960;-0.698;2023-11-21T06:02:53;101641.06;;;10.11;100.00
46718;BME280;32448;44.960;-0.698;2023-11-21T06:05:23;101671.19;;;10.25;100.00
46718;BME280;32448;44.960;-0.698;2023-11-21T06:07:54;101680.09;;;10.32;100.00
46718;BME280;32448;44.960;-0.698;2023-11-21T06:10:23;101682.00;;;10.36;100.00
46718;BME280;32448;44.960;-0.698;2023-11-21T06:12:51;101680.00;;;10.29;100.00
46718;BME280;32448;44.960;-0.698;2023-11-21T06:15:18;101685.38;;;10.33;100.00
46718;BME280;32448;44.960;-0.698;2023-11-21T06:17:50;101675.22;;;10.42;100.00
46718;BME280;32448;44.960;-0.698;2023-11-21T06:20:20;101692.75;;;10.45;100.00
46718;BME280;32448;44.960;-0.698;2023-11-21T06:22:49;101693.72;;;10.48;100.00
46718;BME280;32448;44.960;-0.698;2023-11-21T06:25:19;101690.34;;;10.52;100.00
46718;BME280;32448;44.960;-0.698;2023-11-21T06:27:47;101679.78;;;10.48;100.00
46718;BME280;32448;44.960;-0.698;2023-11-21T06:30:15;101656.69;;;10.35;100.00
46718;BME280;32448;44.960;-0.698;2023-11-21T06:32:43;101678.06;;;10.50;100.00
46718;BME280;32448;44.960;-0.698;2023-11-21T06:35:14;101679.22;;;10.58;100.00
46718;BME280;32448;44.960;-0.698;2023-11-21T06:37:43;101658.25;;;10.56;100.00
46718;BME280;32448;44.960;-0.698;2023-11-21T06:40:19;101680.28;;;10.65;100.00
46718;BME280;32448;44.960;-0.698;2023-11-21T06:42:47;101689.91;;;10.66;100.00
46718;BME280;32448;44.960;-0.698;2023-11-21T06:45:15;101683.63;;;10.61;100.00
46718;BME280;32448;44.960;-0.698;2023-11-21T06:47:42;101675.63;;;10.54;100.00
46718;BME280;32448;44.960;-0.698;2023-11-21T06:50:09;101695.88;;;10.62;100.00
46718;BME280;32448;44.960;-0.698;2023-11-21T06:52:37;101680.50;;;10.44;100.00
46718;BME280;32448;44.960;-0.698;2023-11-21T06:55:04;101692.25;;;10.56;100.00
46718;BME280;32448;44.960;-0.698;2023-11-21T06:57:31;101688.00;;;10.60;100.00
46718;BME280;32448;44.960;-0.698;2023-11-21T06:59:59;101692.41;;;10.63;100.00
46718;BME280;32448;44.960;-0.698;2023-11-21T07:02:26;101683.56;;;10.57;100.00
46718;BME280;32448;44.960;-0.698;2023-11-21T07:04:53;101692.13;;;10.53;100.00
46718;BME280;32448;44.960;-0.698;2023-11-21T07:07:19;101694.66;;;10.50;100.00
46718;BME280;32448;44.960;-0.698;2023-11-21T07:09:46;101700.13;;;10.58;100.00
46718;BME280;32448;44.960;-0.698;2023-11-21T07:12:14;101699.94;;;10.52;100.00
46718;BME280;32448;44.960;-0.698;2023-11-21T07:14:41;101707.69;;;10.49;100.00
46718;BME280;32448;44.960;-0.698;2023-11-21T07:17:20;101709.19;;;10.42;100.00
46718;BME280;32448;44.960;-0.698;2023-11-21T07:19:49;101725.19;;;10.51;100.00
46718;BME280;32448;44.960;-0.698;2023-11-21T07:22:16;101724.22;;;10.49;100.00
46718;BME280;32448;44.960;-0.698;2023-11-21T07:24:51;101730.50;;;10.54;100.00
46718;BME280;32448;44.960;-0.698;2023-11-21T07:27:18;101740.25;;;10.58;100.00
46718;BME280;32448;44.960;-0.698;2023-11-21T07:29:45;101739.28;;;10.56;100.00
46718;BME280;32448;44.960;-0.698;2023-11-21T07:32:12;101739.34;;;10.58;100.00
46718;BME280;32448;44.960;-0.698;2023-11-21T07:34:39;101739.63;;;10.67;100.00
46718;BME280;32448;44.960;-0.698;2023-11-21T07:37:07;101735.91;;;10.59;100.00
46718;BME280;32448;44.960;-0.698;2023-11-21T07:39:37;101750.09;;;10.67;100.00
46718;BME280;32448;44.960;-0.698;2023-11-21T07:42:08;101750.78;;;10.62;100.00
46718;BME280;32448;44.960;-0.698;2023-11-21T07:44:35;101757.78;;;10.63;100.00
46718;BME280;32448;44.960;-0.698;2023-11-21T07:47:02;101758.00;;;10.69;100.00
46718;BME280;32448;44.960;-0.698;2023-11-21T07:49:31;101723.44;;;10.52;100.00
46718;BME280;32448;44.960;-0.698;2023-11-21T07:51:58;101733.97;;;10.53;100.00
46718;BME280;32448;44.960;-0.698;2023-11-21T07:54:24;101762.84;;;10.85;100.00
46718;BME280;32448;44.960;-0.698;2023-11-21T07:56:51;101779.03;;;11.00;100.00
46718;BME280;32448;44.960;-0.698;2023-11-21T07:59:18;101776.97;;;10.90;100.00
46718;BME280;32448;44.960;-0.698;2023-11-21T08:01:45;101762.97;;;10.88;100.00
46718;BME280;32448;44.960;-0.698;2023-11-21T08:04:12;101777.31;;;11.01;100.00
46718;BME280;32448;44.960;-0.698;2023-11-21T08:06:40;101778.38;;;11.07;100.00
46718;BME280;32448;44.960;-0.698;2023-11-21T08:09:08;101771.31;;;11.05;100.00
46718;BME280;32448;44.960;-0.698;2023-11-21T08:11:35;101761.56;;;10.99;100.00
46718;BME280;32448;44.960;-0.698;2023-11-21T08:14:07;101789.09;;;11.15;100.00
46718;BME280;32448;44.960;-0.698;2023-11-21T08:16:35;101804.19;;;11.23;100.00
46718;BME280;32448;44.960;-0.698;2023-11-21T08:19:05;101795.19;;;11.14;100.00
46718;BME280;32448;44.960;-0.698;2023-11-21T08:21:35;101805.91;;;11.23;100.00
46718;BME280;32448;44.960;-0.698;2023-11-21T08:24:07;101786.28;;;11.09;100.00
46718;BME280;32448;44.960;-0.698;2023-11-21T08:26:38;101799.00;;;11.25;100.00
46718;BME280;32448;44.960;-0.698;2023-11-21T08:29:04;101813.09;;;11.30;100.00
46718;BME280;32448;44.960;-0.698;2023-11-21T08:31:36;101786.59;;;11.19;100.00
46718;BME280;32448;44.960;-0.698;2023-11-21T08:34:04;101816.56;;;11.29;100.00
46718;BME280;32448;44.960;-0.698;2023-11-21T08:36:33;101815.78;;;11.31;100.00
46718;BME280;32448;44.960;-0.698;2023-11-21T08:39:01;101769.97;;;11.17;100.00
46718;BME280;32448;44.960;-0.698;2023-11-21T08:41:30;101807.34;;;11.42;100.00
46718;BME280;32448;44.960;-0.698;2023-11-21T08:43:57;101786.88;;;11.28;100.00
46718;BME280;32448;44.960;-0.698;2023-11-21T08:46:24;101790.59;;;11.35;100.00
46718;BME280;32448;44.960;-0.698;2023-11-21T08:48:54;101793.38;;;11.41;100.00
46718;BME280;32448;44.960;-0.698;2023-11-21T08:51:21;101791.59;;;11.40;100.00
46718;BME280;32448;44.960;-0.698;2023-11-21T08:53:48;101802.91;;;11.38;100.00
46718;BME280;32448;44.960;-0.698;2023-11-21T08:56:15;101814.22;;;11.38;100.00
46718;BME280;32448;44.960;-0.698;2023-11-21T08:58:42;101825.91;;;11.49;100.00
46718;BME280;32448;44.960;-0.698;2023-11-21T09:01:09;101816.25;;;11.47;100.00
46718;BME280;32448;44.960;-0.698;2023-11-21T09:03:36;101802.00;;;11.37;100.00
46718;BME280;32448;44.960;-0.698;2023-11-21T09:06:03;101829.81;;;11.63;100.00
46718;BME280;32448;44.960;-0.698;2023-11-21T09:08:30;101811.66;;;11.40;100.00
46718;BME280;32448;44.960;-0.698;2023-11-21T09:10:58;101796.03;;;11.43;100.00
46718;BME280;32448;44.960;-0.698;2023-11-21T09:13:25;101833.50;;;11.68;100.00
46718;BME280;32448;44.960;-0.698;2023-11-21T09:15:52;101836.78;;;11.63;100.00
46718;BME280;32448;44.960;-0.698;2023-11-21T09:18:19;101831.66;;;11.66;100.00
46718;BME280;32448;44.960;-0.698;2023-11-21T09:20:46;101823.06;;;11.70;100.00
46718;BME280;32448;44.960;-0.698;2023-11-21T09:23:12;101808.44;;;11.77;100.00
46718;BME280;32448;44.960;-0.698;2023-11-21T09:25:39;101818.94;;;11.78;100.00
46718;BME280;32448;44.960;-0.698;2023-11-21T09:28:06;101788.88;;;11.65;100.00
46718;BME280;32448;44.960;-0.698;2023-11-21T09:30:35;101793.16;;;11.63;100.00
46718;BME280;32448;44.960;-0.698;2023-11-21T09:33:02;101803.00;;;11.71;100.00
46718;BME280;32448;44.960;-0.698;2023-11-21T09:35:29;101825.50;;;11.94;100.00
46718;BME280;32448;44.960;-0.698;2023-11-21T09:37:56;101824.69;;;11.96;100.00
46718;BME280;32448;44.960;-0.698;2023-11-21T09:40:23;101815.13;;;11.97;100.00
46718;BME280;32448;44.960;-0.698;2023-11-21T09:42:57;101831.09;;;12.06;100.00
46718;BME280;32448;44.960;-0.698;2023-11-21T09:45:28;101817.97;;;12.06;100.00
46718;BME280;32448;44.960;-0.698;2023-11-21T09:47:56;101816.72;;;12.23;100.00
46718;BME280;32448;44.960;-0.698;2023-11-21T09:50:24;101809.84;;;12.28;100.00
46718;BME280;32448;44.960;-0.698;2023-11-21T09:53:11;101831.38;;;12.50;100.00
46718;BME280;32448;44.960;-0.698;2023-11-21T09:55:48;101827.13;;;12.53;100.00
46718;BME280;32448;44.960;-0.698;2023-11-21T09:58:18;101801.28;;;12.34;100.00
46718;BME280;32448;44.960;-0.698;2023-11-21T10:00:47;101845.56;;;12.56;100.00
46718;BME280;32448;44.960;-0.698;2023-11-21T10:03:15;101833.06;;;12.46;100.00
46718;BME280;32448;44.960;-0.698;2023-11-21T10:05:43;101830.44;;;12.46;100.00
46718;BME280;32448;44.960;-0.698;2023-11-21T10:08:13;101827.00;;;12.49;100.00
46718;BME280;32448;44.960;-0.698;2023-11-21T10:10:44;101826.97;;;12.47;100.00
46718;BME280;32448;44.960;-0.698;2023-11-21T10:13:17;101836.72;;;12.53;100.00
46718;BME280;32448;44.960;-0.698;2023-11-21T10:15:50;101837.63;;;12.53;100.00
46718;BME280;32448;44.960;-0.698;2023-11-21T10:18:17;101827.59;;;12.37;100.00
46718;BME280;32448;44.960;-0.698;2023-11-21T10:20:45;101847.06;;;12.48;100.00
46718;BME280;32448;44.960;-0.698;2023-11-21T10:23:20;101838.91;;;12.36;100.00
46718;BME280;32448;44.960;-0.698;2023-11-21T10:25:48;101849.50;;;12.40;100.00
46718;BME280;32448;44.960;-0.698;2023-11-21T10:28:17;101852.50;;;12.54;100.00
46718;BME280;32448;44.960;-0.698;2023-11-21T10:30:44;101856.38;;;12.68;100.00
46718;BME280;32448;44.960;-0.698;2023-11-21T10:33:11;101849.34;;;12.67;100.00
46718;BME280;32448;44.960;-0.698;2023-11-21T10:35:41;101855.34;;;12.63;100.00
46718;BME280;32448;44.960;-0.698;2023-11-21T10:38:09;101834.41;;;12.65;100.00
46718;BME280;32448;44.960;-0.698;2023-11-21T10:40:43;101852.91;;;12.69;100.00
46718;BME280;32448;44.960;-0.698;2023-11-21T10:43:11;101840.09;;;12.49;100.00
46718;BME280;32448;44.960;-0.698;2023-11-21T10:45:42;101829.69;;;12.52;100.00
46718;BME280;32448;44.960;-0.698;2023-11-21T10:48:10;101855.13;;;12.54;100.00
46718;BME280;32448;44.960;-0.698;2023-11-21T10:50:47;101853.75;;;12.68;100.00
46718;BME280;32448;44.960;-0.698;2023-11-21T10:53:16;101841.25;;;12.58;100.00
46718;BME280;32448;44.960;-0.698;2023-11-21T10:55:43;101853.75;;;12.68;100.00
46718;BME280;32448;44.960;-0.698;2023-11-21T10:58:13;101861.22;;;12.88;100.00
46718;BME280;32448;44.960;-0.698;2023-11-21T11:00:41;101855.22;;;12.93;100.00
46718;BME280;32448;44.960;-0.698;2023-11-21T11:03:09;101850.03;;;12.95;100.00
46718;BME280;32448;44.960;-0.698;2023-11-21T11:05:43;101843.94;;;12.96;100.00
46718;BME280;32448;44.960;-0.698;2023-11-21T11:08:21;101851.97;;;13.02;100.00
46718;BME280;32448;44.960;-0.698;2023-11-21T11:10:54;101834.03;;;12.84;100.00
46718;BME280;32448;44.960;-0.698;2023-11-21T11:13:22;101850.16;;;12.99;100.00
46718;BME280;32448;44.960;-0.698;2023-11-21T11:15:50;101841.44;;;13.00;100.00
46718;BME280;32448;44.960;-0.698;2023-11-21T11:18:18;101844.19;;;13.06;100.00
46718;BME280;32448;44.960;-0.698;2023-11-21T11:20:51;101818.38;;;12.87;100.00
46718;BME280;32448;44.960;-0.698;2023-11-21T11:37:19;101843.88;;;12.94;100.00
46718;BME280;32448;44.960;-0.698;2023-11-21T11:39:49;101850.31;;;13.07;100.00
46718;BME280;32448;44.960;-0.698;2023-11-21T11:42:17;101840.13;;;13.18;100.00
46718;BME280;32448;44.960;-0.698;2023-11-21T11:47:24;101805.66;;;13.05;100.00
46718;BME280;32448;44.960;-0.698;2023-11-21T11:50:07;101845.38;;;13.18;100.00
46718;BME280;32448;44.960;-0.698;2023-11-21T11:52:48;101801.44;;;13.10;100.00
46718;BME280;32448;44.960;-0.698;2023-11-21T11:55:19;101808.28;;;13.05;100.00
46718;BME280;32448;44.960;-0.698;2023-11-21T11:57:50;101828.69;;;13.16;100.00
46718;BME280;32448;44.960;-0.698;2023-11-21T12:00:33;101844.47;;;13.17;100.00
46718;BME280;32448;44.960;-0.698;2023-11-21T12:03:05;101828.19;;;12.96;100.00
46718;BME280;32448;44.960;-0.698;2023-11-21T12:05:35;101802.75;;;12.93;100.00
46718;BME280;32448;44.960;-0.698;2023-11-21T12:08:07;101811.59;;;12.97;100.00
46718;BME280;32448;44.960;-0.698;2023-11-21T12:10:36;101818.28;;;12.84;100.00
46718;BME280;32448;44.960;-0.698;2023-11-21T12:13:06;101827.97;;;12.87;100.00
46718;BME280;32448;44.960;-0.698;2023-11-21T12:15:38;101830.09;;;13.01;100.00
46718;BME280;32448;44.960;-0.698;2023-11-21T12:18:07;101838.22;;;13.12;100.00
46718;BME280;32448;44.960;-0.698;2023-11-21T12:20:34;101833.09;;;13.17;100.00
46718;BME280;32448;44.960;-0.698;2023-11-21T12:23:07;101817.44;;;13.21;100.00
46718;BME280;32448;44.960;-0.698;2023-11-21T12:25:36;101800.72;;;13.18;100.00
46718;BME280;32448;44.960;-0.698;2023-11-21T12:28:03;101812.59;;;13.02;100.00
46718;BME280;32448;44.960;-0.698;2023-11-21T12:30:31;101816.28;;;13.10;100.00
46718;BME280;32448;44.960;-0.698;2023-11-21T12:32:59;101834.25;;;13.29;100.00
46718;BME280;32448;44.960;-0.698;2023-11-21T12:35:31;101829.78;;;13.24;100.00
46718;BME280;32448;44.960;-0.698;2023-11-21T12:38:02;101829.81;;;13.27;100.00
46718;BME280;32448;44.960;-0.698;2023-11-21T12:40:29;101836.94;;;13.31;100.00
46718;BME280;32448;44.960;-0.698;2023-11-21T12:42:57;101841.22;;;13.27;100.00
46718;BME280;32448;44.960;-0.698;2023-11-21T12:45:26;101799.81;;;13.14;100.00
46718;BME280;32448;44.960;-0.698;2023-11-21T12:48:05;101830.94;;;13.36;100.00
46718;BME280;32448;44.960;-0.698;2023-11-21T12:50:38;101819.56;;;13.37;100.00
46718;BME280;32448;44.960;-0.698;2023-11-21T12:53:12;101826.53;;;13.37;100.00
46718;BME280;32448;44.960;-0.698;2023-11-21T12:55:39;101829.44;;;13.49;100.00
46718;BME280;32448;44.960;-0.698;2023-11-21T12:58:09;101837.31;;;13.49;100.00